Time;durP1;ratioP1;P1;durP2;ratioP2;P2;SDS_P1;SDS_P2;PMS_P1;PMS_P2;Temp;Humidity;BMP_temperature;BMP_pressure;BME280_temperature;BME280_humidity;BME280_pressure;Samples;Min_cycle;Max_cycle;Signal;HPM_P1;HPM_P2
2021/09/22 00:01:30;;;;;;;8.67;6.30;;;13.50;1.00;;;;;;5031635;28;20432;-80
2021/09/22 00:03:57;;;;;;;11.00;7.60;;;13.50;1.00;;;;;;5030319;28;20417;-78
2021/09/22 00:06:26;;;;;;;10.67;9.57;;;13.50;1.00;;;;;;5031447;28;20808;-79
2021/09/22 00:08:52;;;;;;;14.30;9.97;;;13.50;1.00;;;;;;5029424;28;20563;-80
2021/09/22 00:11:19;;;;;;;11.63;9.67;;;13.60;1.00;;;;;;5031884;28;20448;-80
2021/09/22 00:13:45;;;;;;;13.17;9.97;;;13.60;1.00;;;;;;5030551;28;20461;-79
2021/09/22 00:16:12;;;;;;;16.50;11.27;;;13.60;1.00;;;;;;5033763;28;20579;-79
2021/09/22 00:18:39;;;;;;;12.40;11.10;;;13.60;1.00;;;;;;5034139;28;20481;-80
2021/09/22 00:21:06;;;;;;;12.07;10.63;;;13.60;1.00;;;;;;5032700;28;20560;-82
2021/09/22 00:23:34;;;;;;;14.20;10.10;;;13.70;1.00;;;;;;5034492;28;20465;-79
2021/09/22 00:26:00;;;;;;;12.77;10.53;;;13.60;1.00;;;;;;5025557;28;20525;-78
2021/09/22 00:28:27;;;;;;;14.97;10.60;;;13.60;1.00;;;;;;5032634;28;20480;-80
2021/09/22 00:30:55;;;;;;;15.50;10.80;;;13.60;1.00;;;;;;5034778;28;20451;-79
2021/09/22 00:33:21;;;;;;;14.70;10.57;;;13.60;1.00;;;;;;5034827;28;20486;-79
2021/09/22 00:35:48;;;;;;;14.60;11.10;;;13.50;1.00;;;;;;5031455;28;20456;-78
2021/09/22 00:38:15;;;;;;;14.60;11.47;;;13.50;1.00;;;;;;5031888;28;20511;-80
2021/09/22 00:40:43;;;;;;;18.43;9.77;;;13.50;1.00;;;;;;5034687;28;21099;-79
2021/09/22 00:43:10;;;;;;;14.70;10.20;;;13.40;1.00;;;;;;5036010;28;20539;-79
2021/09/22 00:45:36;;;;;;;15.77;10.37;;;13.40;1.00;;;;;;5031679;28;20445;-79
2021/09/22 00:48:03;;;;;;;17.57;10.13;;;13.40;1.00;;;;;;5012835;28;20548;-79
2021/09/22 00:50:30;;;;;;;14.13;9.90;;;13.40;1.00;;;;;;5031124;28;21033;-79
2021/09/22 00:52:57;;;;;;;14.70;9.60;;;13.30;1.00;;;;;;5030691;28;20466;-79
2021/09/22 00:55:23;;;;;;;22.10;11.40;;;13.30;1.00;;;;;;5031123;28;21262;-81
2021/09/22 00:57:54;;;;;;;14.70;11.17;;;13.20;1.00;;;;;;5034318;28;20555;-78
2021/09/22 01:00:23;;;;;;;16.23;10.90;;;13.30;1.00;;;;;;5029832;28;20449;-77
2021/09/22 01:02:50;;;;;;;19.83;12.20;;;13.30;1.00;;;;;;5033371;28;20552;-80
2021/09/22 01:05:18;;;;;;;18.67;11.00;;;13.30;1.00;;;;;;5032906;28;20508;-79
2021/09/22 01:07:46;;;;;;;18.10;10.87;;;13.30;1.00;;;;;;5031944;28;21377;-79
2021/09/22 01:10:13;;;;;;;16.90;11.30;;;13.30;1.00;;;;;;5029012;28;20441;-78
2021/09/22 01:12:40;;;;;;;14.40;10.20;;;13.30;1.00;;;;;;5033255;28;20441;-78
2021/09/22 01:15:09;;;;;;;17.33;10.63;;;13.30;1.00;;;;;;5033992;28;20491;-78
2021/09/22 01:17:36;;;;;;;17.77;10.83;;;13.30;1.00;;;;;;5025872;28;20582;-79
2021/09/22 01:20:05;;;;;;;14.00;10.53;;;13.30;1.00;;;;;;5028536;28;20467;-79
2021/09/22 01:22:33;;;;;;;14.20;9.57;;;13.40;1.00;;;;;;5030608;28;20542;-79
2021/09/22 01:25:00;;;;;;;14.30;10.00;;;13.40;1.00;;;;;;5029010;28;20460;-79
2021/09/22 01:27:27;;;;;;;17.60;9.63;;;13.40;1.00;;;;;;5031386;28;20457;-78
2021/09/22 01:29:55;;;;;;;19.97;11.10;;;13.40;1.00;;;;;;5025273;28;20436;-78
2021/09/22 01:32:22;;;;;;;21.40;10.63;;;13.40;1.00;;;;;;5041072;28;20527;-79
2021/09/22 01:34:48;;;;;;;15.87;9.77;;;13.50;1.00;;;;;;5019819;28;20464;-78
2021/09/22 01:37:15;;;;;;;13.77;10.80;;;13.50;1.00;;;;;;5023146;28;20468;-78
2021/09/22 01:39:44;;;;;;;19.13;11.37;;;13.60;1.00;;;;;;5020817;28;20459;-79
2021/09/22 01:42:11;;;;;;;22.33;10.70;;;13.60;1.00;;;;;;5022025;28;20487;-79
2021/09/22 01:44:38;;;;;;;15.63;9.60;;;13.60;1.00;;;;;;5020250;28;20452;-79
2021/09/22 01:47:05;;;;;;;15.60;10.47;;;13.70;1.00;;;;;;5024853;28;20465;-78
2021/09/22 01:49:32;;;;;;;15.17;10.00;;;13.70;1.00;;;;;;5027088;28;20446;-80
2021/09/22 01:52:01;;;;;;;15.17;10.10;;;13.80;1.00;;;;;;5025532;28;20455;-78
2021/09/22 01:54:28;;;;;;;21.20;11.00;;;13.80;1.00;;;;;;5023846;28;21659;-79
2021/09/22 01:56:56;;;;;;;15.67;10.40;;;13.80;1.00;;;;;;5022158;28;21289;-79
2021/09/22 01:59:23;;;;;;;17.50;11.53;;;13.80;1.00;;;;;;5018209;28;21020;-78
2021/09/22 02:01:50;;;;;;;19.60;9.20;;;13.80;1.00;;;;;;5021609;28;20588;-80
2021/09/22 02:04:16;;;;;;;18.87;10.43;;;13.80;1.00;;;;;;5025748;28;20452;-80
2021/09/22 02:06:43;;;;;;;17.73;9.90;;;13.90;1.00;;;;;;5016778;28;20555;-79
2021/09/22 02:09:10;;;;;;;13.70;8.00;;;13.80;1.00;;;;;;5021531;28;21597;-79
2021/09/22 02:11:36;;;;;;;15.40;8.03;;;13.80;1.00;;;;;;5020773;28;23103;-77
2021/09/22 02:14:04;;;;;;;11.67;7.93;;;13.80;1.00;;;;;;5027408;28;21607;-79
2021/09/22 02:16:31;;;;;;;15.33;8.27;;;13.90;1.00;;;;;;5026568;28;20506;-79
2021/09/22 02:18:58;;;;;;;19.93;9.73;;;13.90;1.00;;;;;;5030019;28;21086;-79
2021/09/22 02:21:24;;;;;;;13.07;7.13;;;13.90;1.00;;;;;;5025348;28;20528;-82
2021/09/22 02:23:51;;;;;;;18.47;7.73;;;13.90;1.00;;;;;;5026079;28;20441;-79
2021/09/22 02:26:18;;;;;;;15.47;7.60;;;13.90;1.00;;;;;;5029700;28;20426;-77
2021/09/22 02:28:45;;;;;;;11.93;7.43;;;13.90;1.00;;;;;;5034792;28;20984;-80
2021/09/22 02:31:13;;;;;;;15.50;7.40;;;13.80;1.00;;;;;;5034681;28;20554;-80
2021/09/22 02:33:39;;;;;;;17.73;8.10;;;13.80;1.00;;;;;;5027897;28;20460;-79
2021/09/22 02:36:06;;;;;;;13.57;6.90;;;13.70;1.00;;;;;;5024007;28;20480;-80
2021/09/22 02:38:33;;;;;;;14.93;6.90;;;13.60;1.00;;;;;;5023342;28;21011;-79
2021/09/22 02:41:00;;;;;;;13.33;7.27;;;13.60;1.00;;;;;;5028601;28;20457;-80
2021/09/22 02:43:26;;;;;;;17.27;7.00;;;13.60;1.00;;;;;;5030054;28;20404;-78
2021/09/22 02:45:53;;;;;;;16.63;7.17;;;13.50;1.00;;;;;;5034409;28;20461;-80
2021/09/22 02:48:22;;;;;;;18.10;7.47;;;13.50;1.00;;;;;;5028376;28;21246;-80
2021/09/22 02:50:48;;;;;;;13.77;7.17;;;13.40;1.00;;;;;;5031382;28;20512;-79
2021/09/22 02:53:15;;;;;;;14.57;8.00;;;13.50;1.00;;;;;;5029726;28;20567;-80
2021/09/22 02:55:42;;;;;;;15.70;6.47;;;13.50;1.00;;;;;;5028314;28;21515;-80
2021/09/22 02:58:09;;;;;;;17.00;7.50;;;13.50;1.00;;;;;;5032482;28;20453;-79
2021/09/22 03:00:36;;;;;;;15.80;8.20;;;13.40;1.00;;;;;;5034290;28;21102;-79
2021/09/22 03:03:03;;;;;;;13.37;6.10;;;13.40;1.00;;;;;;5032337;28;20469;-78
2021/09/22 03:05:31;;;;;;;18.17;6.70;;;13.40;1.00;;;;;;5031905;28;21306;-79
2021/09/22 03:07:58;;;;;;;13.20;6.60;;;13.40;1.00;;;;;;5031795;28;20433;-79
2021/09/22 03:10:24;;;;;;;14.90;6.53;;;13.40;1.00;;;;;;5033590;28;20480;-79
2021/09/22 03:12:55;;;;;;;16.77;6.80;;;13.40;1.00;;;;;;5028315;28;20458;-78
2021/09/22 03:15:22;;;;;;;16.20;6.07;;;13.40;1.00;;;;;;5033660;28;20475;-79
2021/09/22 03:17:49;;;;;;;16.70;6.93;;;13.40;1.00;;;;;;5034407;28;20535;-79
2021/09/22 03:20:16;;;;;;;18.47;7.40;;;13.30;1.00;;;;;;5031607;28;20456;-79
2021/09/22 03:22:44;;;;;;;18.50;7.83;;;13.30;1.00;;;;;;5029545;28;20463;-80
2021/09/22 03:25:11;;;;;;;15.20;6.63;;;13.30;1.00;;;;;;5029088;28;20524;-79
2021/09/22 03:27:39;;;;;;;17.40;6.47;;;13.20;1.00;;;;;;5027020;28;21397;-79
2021/09/22 03:30:09;;;;;;;20.93;7.40;;;13.20;1.00;;;;;;5028194;28;21307;-78
2021/09/22 03:32:36;;;;;;;19.67;7.10;;;13.20;1.00;;;;;;5032360;28;21309;-80
2021/09/22 03:35:04;;;;;;;16.80;7.27;;;13.20;1.00;;;;;;5030300;28;21095;-78
2021/09/22 03:37:31;;;;;;;20.67;8.20;;;13.10;1.00;;;;;;5029704;28;21075;-79
2021/09/22 03:39:59;;;;;;;14.17;7.03;;;13.10;1.00;;;;;;5030648;28;20579;-78
2021/09/22 03:42:26;;;;;;;14.47;6.80;;;13.00;1.00;;;;;;5031260;28;20461;-79
2021/09/22 03:44:52;;;;;;;15.17;6.40;;;13.00;1.00;;;;;;5029550;28;20460;-78
2021/09/22 03:47:19;;;;;;;18.53;6.50;;;12.90;1.00;;;;;;5033054;28;20493;-79
2021/09/22 03:49:46;;;;;;;18.50;7.97;;;12.90;1.00;;;;;;5035359;28;21022;-79
2021/09/22 03:52:13;;;;;;;19.43;6.67;;;12.90;1.00;;;;;;5039764;28;21663;-79
2021/09/22 03:54:39;;;;;;;17.37;7.77;;;12.90;1.00;;;;;;5042134;28;20452;-79
2021/09/22 03:57:07;;;;;;;20.57;7.53;;;13.00;1.00;;;;;;5053983;28;20926;-79
2021/09/22 03:59:34;;;;;;;16.97;7.00;;;13.10;1.00;;;;;;5044179;28;21396;-80
2021/09/22 04:02:00;;;;;;;14.50;6.40;;;13.10;1.00;;;;;;5051907;28;20460;-79
2021/09/22 04:04:27;;;;;;;20.07;8.30;;;13.20;1.00;;;;;;5032131;28;20443;-78
2021/09/22 04:06:54;;;;;;;15.80;7.20;;;13.20;1.00;;;;;;5034823;28;21078;-79
2021/09/22 04:09:20;;;;;;;16.07;6.50;;;13.30;1.00;;;;;;5040365;28;20443;-78
2021/09/22 04:11:47;;;;;;;18.33;7.43;;;13.30;1.00;;;;;;5034082;28;20491;-79
2021/09/22 04:14:16;;;;;;;20.23;7.20;;;13.40;1.00;;;;;;5035436;28;20452;-78
2021/09/22 04:16:42;;;;;;;19.80;7.10;;;13.40;1.00;;;;;;5033218;28;20438;-80
2021/09/22 04:19:09;;;;;;;19.80;7.50;;;13.40;1.00;;;;;;5036097;28;20463;-78
2021/09/22 04:21:39;;;;;;;17.10;6.83;;;13.40;1.00;;;;;;5032996;28;20445;-79
2021/09/22 04:24:06;;;;;;;26.67;14.20;;;13.40;1.00;;;;;;5026553;28;20464;-82
2021/09/22 04:26:33;;;;;;;19.77;7.00;;;13.30;1.00;;;;;;5043576;28;20456;-82
2021/09/22 04:28:59;;;;;;;14.97;6.73;;;13.30;1.00;;;;;;5035214;28;20484;-85
2021/09/22 04:31:27;;;;;;;15.73;7.33;;;13.30;1.00;;;;;;5040756;28;20468;-83
2021/09/22 04:33:54;;;;;;;22.23;8.67;;;13.20;1.00;;;;;;5041110;28;20456;-82
2021/09/22 04:36:21;;;;;;;19.67;9.27;;;13.20;1.00;;;;;;5035609;28;20527;-84
2021/09/22 04:38:48;;;;;;;17.53;9.13;;;13.10;1.00;;;;;;5035453;28;21429;-80
2021/09/22 04:41:14;;;;;;;19.57;7.40;;;13.10;1.00;;;;;;5030905;28;20540;-80
2021/09/22 04:43:41;;;;;;;16.67;6.80;;;13.10;1.00;;;;;;5032506;28;20487;-79
2021/09/22 04:46:09;;;;;;;17.63;7.40;;;13.20;1.00;;;;;;5033554;28;20501;-82
2021/09/22 04:48:39;;;;;;;15.77;7.37;;;13.20;1.00;;;;;;5031892;28;20944;-78
2021/09/22 04:51:06;;;;;;;18.83;6.60;;;13.10;1.00;;;;;;5032340;28;20444;-78
2021/09/22 04:53:33;;;;;;;16.47;7.37;;;13.10;1.00;;;;;;5026428;28;20515;-78
2021/09/22 04:56:00;;;;;;;18.77;7.27;;;13.10;1.00;;;;;;5029311;28;20449;-79
2021/09/22 04:58:26;;;;;;;18.73;7.40;;;13.20;1.00;;;;;;5038366;28;25521;-78
2021/09/22 05:00:53;;;;;;;20.83;7.53;;;13.10;1.00;;;;;;5044117;28;20982;-81
2021/09/22 05:03:20;;;;;;;24.20;8.53;;;13.20;1.00;;;;;;5035427;28;20476;-77
2021/09/22 05:05:49;;;;;;;21.63;8.20;;;13.20;1.00;;;;;;5032665;28;20538;-78
2021/09/22 05:08:16;;;;;;;19.07;7.27;;;13.30;1.00;;;;;;5036970;28;20523;-79
2021/09/22 05:10:43;;;;;;;16.37;7.10;;;13.30;1.00;;;;;;5036773;28;20437;-81
2021/09/22 05:13:09;;;;;;;16.27;7.13;;;13.30;1.00;;;;;;5036329;28;20473;-80
2021/09/22 05:15:36;;;;;;;22.40;8.63;;;13.30;1.00;;;;;;5039051;28;20460;-80
2021/09/22 05:18:03;;;;;;;20.27;8.40;;;13.40;1.00;;;;;;5040037;28;20512;-81
2021/09/22 05:20:29;;;;;;;21.10;7.83;;;13.40;1.00;;;;;;5037179;28;20619;-78
2021/09/22 05:22:57;;;;;;;17.17;7.07;;;13.50;1.00;;;;;;5036839;28;20444;-78
2021/09/22 05:25:24;;;;;;;18.60;8.73;;;13.50;1.00;;;;;;5034700;28;20468;-78
2021/09/22 05:27:51;;;;;;;18.37;6.80;;;13.50;1.00;;;;;;5027556;28;20603;-79
2021/09/22 05:30:18;;;;;;;23.47;7.53;;;13.60;1.00;;;;;;5031986;28;20456;-80
2021/09/22 05:32:44;;;;;;;15.87;7.13;;;13.60;1.00;;;;;;5027209;28;20555;-79
2021/09/22 05:35:12;;;;;;;18.30;8.80;;;13.70;1.00;;;;;;5039885;28;21373;-79
2021/09/22 05:37:39;;;;;;;17.20;7.67;;;13.70;1.00;;;;;;5026921;28;20460;-78
2021/09/22 05:40:09;;;;;;;28.03;8.03;;;13.80;1.00;;;;;;5023165;28;20453;-79
2021/09/22 05:42:36;;;;;;;20.20;7.67;;;13.80;1.00;;;;;;5029564;28;20480;-78
2021/09/22 05:45:04;;;;;;;17.90;8.73;;;13.90;1.00;;;;;;5035431;28;20448;-78
2021/09/22 05:47:31;;;;;;;21.47;8.90;;;13.90;1.00;;;;;;5044968;28;20445;-76
2021/09/22 05:49:58;;;;;;;17.23;8.30;;;14.00;1.00;;;;;;5044374;28;22571;-81
2021/09/22 05:52:25;;;;;;;16.17;7.43;;;14.00;1.00;;;;;;5056854;28;21226;-78
2021/09/22 05:54:52;;;;;;;19.27;9.60;;;14.00;1.00;;;;;;5041411;28;20923;-79
2021/09/22 05:57:20;;;;;;;15.40;7.43;;;13.90;1.00;;;;;;5038350;28;24826;-79
2021/09/22 05:59:47;;;;;;;18.83;8.83;;;13.90;1.00;;;;;;5039280;28;20423;-77
2021/09/22 06:02:14;;;;;;;16.67;7.70;;;14.00;1.00;;;;;;5039575;28;21080;-78
2021/09/22 06:04:40;;;;;;;18.77;8.07;;;13.90;1.00;;;;;;5053691;28;20457;-77
2021/09/22 06:07:07;;;;;;;28.23;9.47;;;14.00;1.00;;;;;;5033850;28;20536;-78
2021/09/22 06:09:34;;;;;;;17.47;8.03;;;13.90;1.00;;;;;;5030665;28;20529;-78
2021/09/22 06:12:00;;;;;;;18.63;8.87;;;13.90;1.00;;;;;;5028734;28;20580;-78
2021/09/22 06:14:28;;;;;;;22.20;9.00;;;13.90;1.00;;;;;;5025840;28;20460;-79
2021/09/22 06:16:55;;;;;;;19.63;10.33;;;13.90;1.00;;;;;;5040350;28;20445;-78
2021/09/22 06:19:22;;;;;;;13.73;7.30;;;13.90;1.00;;;;;;5026967;28;20515;-78
2021/09/22 06:21:48;;;;;;;18.83;8.30;;;13.90;1.00;;;;;;5035103;28;20468;-77
2021/09/22 06:24:18;;;;;;;16.43;7.10;;;13.90;1.00;;;;;;5032369;28;20456;-78
2021/09/22 06:26:45;;;;;;;16.00;7.93;;;13.90;1.00;;;;;;5035983;28;20491;-77
2021/09/22 06:29:12;;;;;;;32.23;13.10;;;13.90;1.00;;;;;;5038745;28;20548;-78
2021/09/22 06:31:40;;;;;;;16.20;7.43;;;13.80;1.00;;;;;;5032749;28;20591;-76
2021/09/22 06:34:07;;;;;;;17.80;8.60;;;13.80;1.00;;;;;;5033186;28;21979;-79
2021/09/22 06:36:34;;;;;;;21.07;9.00;;;13.80;1.00;;;;;;5040062;28;21951;-79
2021/09/22 06:39:01;;;;;;;18.40;8.13;;;13.90;1.00;;;;;;5043554;28;20944;-80
2021/09/22 06:41:29;;;;;;;22.87;9.83;;;13.90;1.00;;;;;;5054411;28;20873;-80
2021/09/22 06:43:57;;;;;;;20.67;9.33;;;13.90;1.00;;;;;;5066147;28;20409;-80
2021/09/22 06:46:24;;;;;;;24.67;9.80;;;14.00;1.00;;;;;;5060247;28;20469;-80
2021/09/22 06:48:52;;;;;;;21.00;8.50;;;14.00;1.00;;;;;;5062453;28;20404;-80
2021/09/22 06:51:18;;;;;;;18.53;8.73;;;14.00;1.00;;;;;;5061381;28;20426;-78
2021/09/22 06:53:46;;;;;;;17.83;8.00;;;14.00;1.00;;;;;;5060657;28;20420;-79
2021/09/22 06:56:12;;;;;;;19.43;8.57;;;14.10;1.00;;;;;;5061490;28;20410;-80
2021/09/22 06:58:39;;;;;;;22.30;9.70;;;14.00;1.00;;;;;;5063605;28;20972;-80
2021/09/22 07:01:06;;;;;;;17.37;9.50;;;14.10;1.00;;;;;;5060114;28;20461;-80
2021/09/22 07:03:33;;;;;;;19.37;8.10;;;14.20;1.00;;;;;;5055133;28;20446;-79
2021/09/22 07:06:05;;;;;;;18.10;8.50;;;14.20;1.00;;;;;;5057172;28;20413;-80
2021/09/22 07:08:32;;;;;;;19.90;9.60;;;14.30;1.00;;;;;;5058925;28;20416;-79
2021/09/22 07:10:58;;;;;;;19.73;8.70;;;14.30;1.00;;;;;;5057406;28;20442;-79
2021/09/22 07:13:25;;;;;;;27.67;8.83;;;14.40;1.00;;;;;;5057210;28;20454;-79
2021/09/22 07:15:53;;;;;;;14.87;8.63;;;14.40;1.00;;;;;;5054837;28;20464;-80
2021/09/22 07:18:20;;;;;;;16.93;8.47;;;14.40;1.00;;;;;;5046230;28;20453;-80
2021/09/22 07:20:48;;;;;;;23.33;8.40;;;14.50;1.00;;;;;;5046338;28;20513;-79
2021/09/22 07:23:19;;;;;;;23.53;10.00;;;14.50;1.00;;;;;;5058068;28;20482;-79
2021/09/22 07:25:46;;;;;;;18.70;8.60;;;14.50;1.00;;;;;;5060795;28;20508;-81
2021/09/22 07:28:13;;;;;;;22.47;9.83;;;14.50;1.00;;;;;;5060291;28;20487;-81
2021/09/22 07:30:40;;;;;;;18.53;9.27;;;14.60;1.00;;;;;;5057308;28;20493;-80
2021/09/22 07:33:08;;;;;;;23.40;12.10;;;14.70;1.00;;;;;;5069838;28;20429;-79
2021/09/22 07:35:35;;;;;;;20.07;9.20;;;14.80;1.00;;;;;;5055154;28;20495;-79
2021/09/22 07:38:02;;;;;;;20.80;7.67;;;14.90;1.00;;;;;;5047416;28;20474;-79
2021/09/22 07:40:31;;;;;;;18.40;9.60;;;14.90;1.00;;;;;;5049323;28;20445;-80
2021/09/22 07:42:58;;;;;;;15.47;7.30;;;14.90;1.00;;;;;;5046535;28;20416;-78
2021/09/22 07:45:25;;;;;;;17.97;9.57;;;14.90;1.00;;;;;;5047258;28;20437;-80
2021/09/22 07:47:52;;;;;;;22.90;7.33;;;14.90;1.00;;;;;;5043729;28;20419;-80
2021/09/22 07:50:19;;;;;;;26.77;9.20;;;15.00;1.00;;;;;;5037015;28;20411;-81
2021/09/22 07:52:46;;;;;;;18.30;8.73;;;15.00;1.00;;;;;;5041472;28;20607;-80
2021/09/22 07:55:14;;;;;;;28.60;9.43;;;15.00;1.00;;;;;;5042002;28;20466;-78
2021/09/22 07:57:42;;;;;;;19.70;8.67;;;15.10;1.00;;;;;;5053101;28;20471;-81
2021/09/22 08:00:11;;;;;;;20.60;7.67;;;15.10;1.00;;;;;;5052832;28;21698;-81
2021/09/22 08:02:38;;;;;;;22.57;8.93;;;15.10;1.00;;;;;;5045448;28;20493;-80
2021/09/22 08:05:06;;;;;;;20.97;7.37;;;15.10;1.00;;;;;;5057674;28;20466;-80
2021/09/22 08:07:32;;;;;;;21.70;8.30;;;15.20;1.00;;;;;;5051718;28;20415;-80
2021/09/22 08:09:59;;;;;;;16.70;7.03;;;15.30;1.00;;;;;;5035524;28;20556;-79
2021/09/22 08:12:26;;;;;;;17.33;7.87;;;15.40;1.00;;;;;;5026073;28;20438;-80
2021/09/22 08:14:54;;;;;;;18.33;7.70;;;15.50;1.00;;;;;;5025782;28;20491;-79
2021/09/22 08:17:21;;;;;;;14.87;8.00;;;15.50;1.00;;;;;;5033237;28;20501;-80
2021/09/22 08:19:48;;;;;;;17.20;7.37;;;15.50;1.00;;;;;;5027131;28;20700;-80
2021/09/22 08:22:15;;;;;;;21.20;9.00;;;15.50;1.00;;;;;;5022468;28;20533;-80
2021/09/22 08:24:41;;;;;;;18.77;8.37;;;15.50;1.00;;;;;;5027755;28;20482;-80
2021/09/22 08:27:10;;;;;;;18.07;7.63;;;15.50;1.00;;;;;;5035900;28;20457;-80
2021/09/22 08:29:37;;;;;;;17.33;7.90;;;15.40;1.00;;;;;;5030884;28;21196;-81
2021/09/22 08:32:05;;;;;;;16.83;7.70;;;15.30;1.00;;;;;;5022893;28;20450;-79
2021/09/22 08:34:32;;;;;;;19.00;7.70;;;15.30;1.00;;;;;;5026846;28;20458;-79
2021/09/22 08:36:59;;;;;;;18.20;9.37;;;15.30;1.00;;;;;;5025642;28;22853;-81
2021/09/22 08:39:29;;;;;;;17.53;7.70;;;15.30;1.00;;;;;;5026943;28;20454;-81
2021/09/22 08:41:56;;;;;;;20.00;7.30;;;15.40;1.00;;;;;;5025706;28;20486;-79
2021/09/22 08:44:24;;;;;;;17.93;8.97;;;15.30;1.00;;;;;;5029803;28;20442;-79
2021/09/22 08:46:51;;;;;;;15.07;7.20;;;15.30;1.00;;;;;;5030082;28;20442;-79
2021/09/22 08:49:19;;;;;;;24.43;8.47;;;15.40;1.00;;;;;;5031536;28;20465;-81
2021/09/22 08:51:46;;;;;;;20.70;9.40;;;15.50;1.00;;;;;;5028971;28;20475;-80
2021/09/22 08:54:14;;;;;;;19.33;7.87;;;15.60;1.00;;;;;;5020983;28;20948;-78
2021/09/22 08:56:42;;;;;;;16.07;6.60;;;15.70;1.00;;;;;;5022671;28;21160;-80
2021/09/22 08:59:10;;;;;;;14.63;7.60;;;15.70;1.00;;;;;;5029595;28;21266;-81
2021/09/22 09:01:37;;;;;;;20.67;7.17;;;15.70;1.00;;;;;;5029343;28;20556;-79
2021/09/22 09:04:14;;;;;;;19.07;8.20;;;15.60;1.00;;;;;;5034473;28;20438;-80
2021/09/22 09:06:42;;;;;;;20.73;7.17;;;15.60;1.00;;;;;;5030799;28;20461;-79
2021/09/22 09:09:09;;;;;;;17.37;7.33;;;15.70;1.00;;;;;;5023251;28;20462;-77
2021/09/22 09:11:37;;;;;;;21.50;8.07;;;15.80;1.00;;;;;;5020422;28;20523;-79
2021/09/22 09:14:07;;;;;;;20.60;6.67;;;15.90;1.00;;;;;;5022352;28;20491;-77
2021/09/22 09:16:37;;;;;;;17.60;7.77;;;16.00;1.00;;;;;;5033051;28;20551;-78
2021/09/22 09:19:11;;;;;;;18.20;7.03;;;16.00;1.00;;;;;;5024217;28;20468;-78
2021/09/22 09:24:35;;;;;;;23.73;7.60;;;16.10;1.00;;;;;;5098404;27;21166;-78
2021/09/22 09:27:03;;;;;;;14.50;7.27;;;16.30;1.00;;;;;;5101351;27;21201;-78
2021/09/22 09:29:30;;;;;;;17.73;7.63;;;16.40;1.00;;;;;;5105243;27;24458;-78
2021/09/22 09:32:12;;;;;;;17.33;7.47;;;16.60;1.00;;;;;;5106821;27;20526;-79
2021/09/22 09:34:56;;;;;;;19.70;6.77;;;17.00;1.00;;;;;;5097857;27;20456;-78
2021/09/22 09:37:29;;;;;;;17.07;6.43;;;17.60;1.00;;;;;;5102712;27;20450;-78
2021/09/22 09:39:57;;;;;;;14.10;6.60;;;18.20;1.00;;;;;;5114304;27;20441;-79
2021/09/22 09:42:29;;;;;;;19.50;7.07;;;18.20;1.00;;;;;;5107439;27;20511;-78
2021/09/22 09:44:57;;;;;;;17.63;7.60;;;18.00;1.00;;;;;;5106331;27;20441;-78
2021/09/22 09:47:24;;;;;;;20.97;8.00;;;17.90;1.00;;;;;;5099492;27;20531;-77
2021/09/22 09:49:50;;;;;;;13.43;6.10;;;17.90;1.00;;;;;;5108965;27;20449;-78
2021/09/22 09:52:17;;;;;;;17.80;6.87;;;17.80;1.00;;;;;;5106247;27;20455;-78
2021/09/22 09:54:49;;;;;;;15.23;6.70;;;17.80;1.00;;;;;;5107064;27;20459;-77
2021/09/22 09:57:20;;;;;;;18.00;6.27;;;17.70;1.00;;;;;;5103814;27;20548;-77
2021/09/22 09:59:48;;;;;;;13.53;6.60;;;17.80;1.00;;;;;;5108262;27;21625;-77
2021/09/22 10:02:25;;;;;;;22.60;8.30;;;17.90;1.00;;;;;;5108097;27;20524;-78
2021/09/22 10:04:53;;;;;;;17.30;6.87;;;18.00;1.00;;;;;;5106115;27;20551;-78
2021/09/22 10:07:19;;;;;;;16.83;6.20;;;17.90;1.00;;;;;;5102076;27;20438;-77
2021/09/22 10:09:46;;;;;;;11.43;5.30;;;18.00;1.00;;;;;;5103032;27;20476;-77
2021/09/22 10:12:16;;;;;;;12.50;5.57;;;18.00;1.00;;;;;;5101733;27;20469;-78
2021/09/22 10:14:46;;;;;;;15.03;6.03;;;18.20;1.00;;;;;;5114700;27;20642;-78
2021/09/22 10:17:15;;;;;;;16.43;6.80;;;18.20;1.00;;;;;;5122267;27;20458;-77
2021/09/22 10:19:43;;;;;;;10.77;5.07;;;18.20;1.00;;;;;;5103326;27;20554;-76
2021/09/22 10:22:09;;;;;;;13.10;5.63;;;18.20;1.00;;;;;;5105496;27;20869;-77
2021/09/22 10:24:37;;;;;;;16.13;5.40;;;18.30;1.00;;;;;;5102148;27;22349;-77
2021/09/22 10:27:04;;;;;;;17.93;6.43;;;18.40;1.00;;;;;;5106635;27;20525;-77
2021/09/22 10:29:36;;;;;;;19.87;7.77;;;18.60;1.00;;;;;;5095672;27;20484;-76
2021/09/22 10:32:07;;;;;;;15.57;5.27;;;19.00;1.00;;;;;;5100938;27;20470;-77
2021/09/22 10:34:36;;;;;;;12.03;4.97;;;19.50;1.00;;;;;;5098383;27;20467;-76
2021/09/22 10:37:06;;;;;;;15.60;4.60;;;19.90;1.00;;;;;;5076343;27;20448;-77
2021/09/22 10:39:44;;;;;;;13.63;5.77;;;20.20;1.00;;;;;;5076713;28;20447;-77
2021/09/22 10:42:27;;;;;;;15.13;5.77;;;20.40;1.00;;;;;;5093645;27;20945;-77
2021/09/22 10:45:12;;;;;;;13.80;5.47;;;20.50;1.00;;;;;;5088332;27;20948;-77
2021/09/22 10:47:41;;;;;;;14.20;5.23;;;20.50;1.00;;;;;;5077559;28;24551;-77
2021/09/22 10:50:09;;;;;;;14.33;4.70;;;20.30;1.00;;;;;;5079032;28;20432;-77
2021/09/22 10:52:38;;;;;;;13.53;5.33;;;20.10;1.00;;;;;;5084665;27;20968;-76
2021/09/22 10:55:11;;;;;;;14.17;6.10;;;19.90;1.00;;;;;;5078987;27;20511;-77
2021/09/22 10:57:38;;;;;;;11.47;4.73;;;19.80;1.00;;;;;;5082324;28;20481;-77
2021/09/22 11:00:09;;;;;;;14.13;4.77;;;19.80;1.00;;;;;;5078891;27;20419;-77
2021/09/22 11:02:44;;;;;;;11.87;5.03;;;19.80;1.00;;;;;;5070244;28;20529;-78
2021/09/22 11:05:12;;;;;;;15.63;5.40;;;19.80;1.00;;;;;;5083714;28;20447;-76
2021/09/22 11:08:01;;;;;;;12.97;5.53;;;19.80;1.00;;;;;;5077809;28;21073;-76
2021/09/22 11:10:41;;;;;;;10.57;4.97;;;19.80;1.00;;;;;;5074652;27;20439;-78
2021/09/22 11:13:34;;;;;;;12.57;5.67;;;20.10;1.00;;;;;;5074165;27;20471;-77
2021/09/22 11:16:20;;;;;;;11.50;4.90;;;20.40;1.00;;;;;;5086929;28;21242;-76
2021/09/22 11:18:51;;;;;;;14.70;5.90;;;20.20;1.00;;;;;;5074830;28;20456;-77
2021/09/22 11:21:22;;;;;;;8.83;4.40;;;20.10;1.00;;;;;;5079922;27;20477;-77
2021/09/22 11:23:51;;;;;;;9.63;4.83;;;20.00;1.00;;;;;;5076177;27;20477;-76
2021/09/22 11:26:18;;;;;;;11.63;5.17;;;20.00;1.00;;;;;;5077843;27;20463;-76
2021/09/22 11:28:50;;;;;;;11.37;4.30;;;20.10;1.00;;;;;;5082594;28;20685;-77
2021/09/22 11:31:18;;;;;;;9.80;4.10;;;20.40;1.00;;;;;;5098800;27;21512;-78
2021/09/22 11:33:45;;;;;;;13.13;5.00;;;20.60;1.00;;;;;;5079521;28;20910;-79
2021/09/22 11:36:14;;;;;;;12.40;5.60;;;20.80;1.00;;;;;;5086472;27;20598;-80
2021/09/22 11:38:40;;;;;;;14.57;4.77;;;21.10;1.00;;;;;;5088869;27;20440;-79
2021/09/22 11:41:07;;;;;;;17.23;8.47;;;21.40;1.00;;;;;;5079371;28;20555;-80
2021/09/22 11:43:34;;;;;;;13.70;4.40;;;22.30;1.00;;;;;;5084096;27;20485;-80
2021/09/22 11:46:03;;;;;;;15.23;5.60;;;23.50;1.00;;;;;;5072987;27;21351;-79
2021/09/22 11:48:31;;;;;;;9.63;4.00;;;23.90;1.00;;;;;;5080366;28;20428;-79
2021/09/22 11:50:59;;;;;;;14.43;4.93;;;24.00;1.00;;;;;;5075578;27;20458;-79
2021/09/22 11:53:32;;;;;;;13.47;5.77;;;23.90;1.00;;;;;;5077504;27;20453;-80
2021/09/22 11:56:00;;;;;;;10.43;4.47;;;26.10;1.00;;;;;;5096956;27;21238;-81
2021/09/22 11:58:29;;;;;;;7.53;4.30;;;27.80;1.00;;;;;;5099563;28;20455;-77
2021/09/22 12:00:57;;;;;;;11.30;4.80;;;29.50;1.00;;;;;;5074021;28;21507;-77
2021/09/22 12:03:26;;;;;;;9.23;3.97;;;30.10;1.00;;;;;;5088357;27;20501;-81
2021/09/22 12:06:04;;;;;;;9.13;4.80;;;30.10;1.00;;;;;;5102569;28;20471;-79
2021/09/22 12:08:33;;;;;;;9.23;4.60;;;29.70;1.00;;;;;;5101131;28;20433;-80
2021/09/22 12:11:01;;;;;;;18.30;16.70;;;29.50;1.00;;;;;;5099953;28;20476;-78
2021/09/22 12:13:28;;;;;;;9.70;4.63;;;29.80;1.00;;;;;;5097237;28;21106;-80
2021/09/22 12:15:57;;;;;;;10.80;4.03;;;29.30;1.00;;;;;;5115374;27;20863;-80
2021/09/22 12:18:24;;;;;;;9.27;4.07;;;28.50;1.00;;;;;;5101926;28;20450;-79
2021/09/22 12:20:52;;;;;;;10.93;4.73;;;27.70;1.00;;;;;;5098905;28;20433;-79
2021/09/22 12:23:26;;;;;;;7.80;4.03;;;27.00;1.00;;;;;;5084458;28;20476;-78
2021/09/22 12:26:09;;;;;;;13.70;5.07;;;26.00;1.00;;;;;;5076556;28;20487;-79
2021/09/22 12:28:36;;;;;;;11.87;5.50;;;25.70;1.00;;;;;;5092676;27;20455;-77
2021/09/22 12:31:16;;;;;;;10.33;4.70;;;25.80;1.00;;;;;;5098819;27;20436;-78
2021/09/22 12:33:44;;;;;;;13.30;5.50;;;25.80;1.00;;;;;;5093290;28;20410;-79
2021/09/22 12:36:13;;;;;;;8.40;3.97;;;25.50;1.00;;;;;;5100324;27;20491;-80
2021/09/22 12:38:49;;;;;;;11.10;3.77;;;25.50;1.00;;;;;;5082154;28;21556;-79
2021/09/22 12:41:18;;;;;;;9.23;3.67;;;26.00;1.00;;;;;;5081703;27;20559;-79
2021/09/22 12:43:45;;;;;;;10.53;4.00;;;26.70;1.00;;;;;;5082068;27;20465;-78
2021/09/22 12:46:14;;;;;;;12.80;4.97;;;27.50;1.00;;;;;;5087079;28;20451;-80
2021/09/22 12:48:41;;;;;;;7.47;3.27;;;27.80;1.00;;;;;;5085379;27;20511;-81
2021/09/22 12:51:17;;;;;;;9.40;3.87;;;27.70;1.00;;;;;;5084399;27;21347;-80
2021/09/22 12:53:45;;;;;;;6.77;3.13;;;28.10;1.00;;;;;;5084571;28;20433;-80